sensor_id;sensor_type;location;lat;lon;timestamp;pressure;altitude;pressure_sealevel;temperature
75822;BMP180;64454;51.984;9.838;2023-04-23T00:02:15;99332.00;;;16.00
75822;BMP180;64454;51.984;9.838;2023-04-23T00:04:50;99325.00;;;16.20
75822;BMP180;64454;51.984;9.838;2023-04-23T00:07:19;99322.00;;;16.40
75822;BMP180;64454;51.984;9.838;2023-04-23T00:09:48;99332.00;;;16.60
75822;BMP180;64454;51.984;9.838;2023-04-23T00:12:17;99331.00;;;16.00
75822;BMP180;64454;51.984;9.838;2023-04-23T00:14:46;99322.00;;;16.20
75822;BMP180;64454;51.984;9.838;2023-04-23T00:17:13;99319.00;;;15.90
75822;BMP180;64454;51.984;9.838;2023-04-23T00:19:40;99326.00;;;16.00
75822;BMP180;64454;51.984;9.838;2023-04-23T00:22:06;99328.00;;;16.00
75822;BMP180;64454;51.984;9.838;2023-04-23T00:24:33;99320.00;;;16.30
75822;BMP180;64454;51.984;9.838;2023-04-23T00:27:03;99316.00;;;16.40
75822;BMP180;64454;51.984;9.838;2023-04-23T00:29:31;99323.00;;;16.00
75822;BMP180;64454;51.984;9.838;2023-04-23T00:31:58;99318.00;;;16.00
75822;BMP180;64454;51.984;9.838;2023-04-23T00:34:25;99319.00;;;15.70
75822;BMP180;64454;51.984;9.838;2023-04-23T00:36:52;99311.00;;;15.90
75822;BMP180;64454;51.984;9.838;2023-04-23T00:39:20;99323.00;;;16.00
75822;BMP180;64454;51.984;9.838;2023-04-23T00:41:47;99317.00;;;15.90
75822;BMP180;64454;51.984;9.838;2023-04-23T00:44:16;99312.00;;;16.30
75822;BMP180;64454;51.984;9.838;2023-04-23T00:46:45;99312.00;;;16.40
75822;BMP180;64454;51.984;9.838;2023-04-23T00:49:14;99313.00;;;16.00
75822;BMP180;64454;51.984;9.838;2023-04-23T00:51:42;99309.00;;;16.30
75822;BMP180;64454;51.984;9.838;2023-04-23T00:54:09;99311.00;;;15.90
75822;BMP180;64454;51.984;9.838;2023-04-23T00:56:36;99315.00;;;16.40
75822;BMP180;64454;51.984;9.838;2023-04-23T00:59:03;99316.00;;;16.00
75822;BMP180;64454;51.984;9.838;2023-04-23T01:01:31;99310.00;;;16.10
75822;BMP180;64454;51.984;9.838;2023-04-23T01:03:59;99305.00;;;15.70
75822;BMP180;64454;51.984;9.838;2023-04-23T01:06:26;99314.00;;;15.70
75822;BMP180;64454;51.984;9.838;2023-04-23T01:08:56;99306.00;;;15.80
75822;BMP180;64454;51.984;9.838;2023-04-23T01:11:23;99306.00;;;15.50
75822;BMP180;64454;51.984;9.838;2023-04-23T01:13:50;99306.00;;;15.40
75822;BMP180;64454;51.984;9.838;2023-04-23T01:16:17;99306.00;;;15.60
75822;BMP180;64454;51.984;9.838;2023-04-23T01:18:44;99308.00;;;15.70
75822;BMP180;64454;51.984;9.838;2023-04-23T01:21:15;99305.00;;;16.00
75822;BMP180;64454;51.984;9.838;2023-04-23T01:23:44;99304.00;;;15.90
75822;BMP180;64454;51.984;9.838;2023-04-23T01:26:11;99314.00;;;15.60
75822;BMP180;64454;51.984;9.838;2023-04-23T01:28:40;99313.00;;;15.70
75822;BMP180;64454;51.984;9.838;2023-04-23T01:31:07;99312.00;;;15.70
75822;BMP180;64454;51.984;9.838;2023-04-23T01:33:34;99310.00;;;15.60
75822;BMP180;64454;51.984;9.838;2023-04-23T01:36:02;99313.00;;;15.70
75822;BMP180;64454;51.984;9.838;2023-04-23T01:38:32;99316.00;;;15.70
75822;BMP180;64454;51.984;9.838;2023-04-23T01:41:00;99306.00;;;15.70
75822;BMP180;64454;51.984;9.838;2023-04-23T01:43:27;99310.00;;;15.50
75822;BMP180;64454;51.984;9.838;2023-04-23T01:45:54;99312.00;;;15.30
75822;BMP180;64454;51.984;9.838;2023-04-23T01:48:21;99312.00;;;15.20
75822;BMP180;64454;51.984;9.838;2023-04-23T01:50:49;99314.00;;;15.30
75822;BMP180;64454;51.984;9.838;2023-04-23T01:53:16;99307.00;;;15.40
75822;BMP180;64454;51.984;9.838;2023-04-23T01:55:47;99315.00;;;15.40
75822;BMP180;64454;51.984;9.838;2023-04-23T01:58:17;99313.00;;;15.20
75822;BMP180;64454;51.984;9.838;2023-04-23T02:00:44;99313.00;;;15.30
75822;BMP180;64454;51.984;9.838;2023-04-23T02:03:11;99320.00;;;15.20
75822;BMP180;64454;51.984;9.838;2023-04-23T02:05:40;99317.00;;;15.50
75822;BMP180;64454;51.984;9.838;2023-04-23T02:08:07;99313.00;;;15.60
75822;BMP180;64454;51.984;9.838;2023-04-23T02:10:34;99317.00;;;15.80
75822;BMP180;64454;51.984;9.838;2023-04-23T02:13:02;99320.00;;;15.60
75822;BMP180;64454;51.984;9.838;2023-04-23T02:15:31;99318.00;;;15.40
75822;BMP180;64454;51.984;9.838;2023-04-23T02:17:58;99319.00;;;15.10
75822;BMP180;64454;51.984;9.838;2023-04-23T02:20:25;99318.00;;;15.00
75822;BMP180;64454;51.984;9.838;2023-04-23T02:22:51;99321.00;;;14.50
75822;BMP180;64454;51.984;9.838;2023-04-23T02:25:19;99320.00;;;15.10
75822;BMP180;64454;51.984;9.838;2023-04-23T02:27:47;99324.00;;;14.80
75822;BMP180;64454;51.984;9.838;2023-04-23T02:30:14;99325.00;;;14.80
75822;BMP180;64454;51.984;9.838;2023-04-23T02:32:42;99330.00;;;15.00
75822;BMP180;64454;51.984;9.838;2023-04-23T02:35:09;99325.00;;;14.90
75822;BMP180;64454;51.984;9.838;2023-04-23T02:37:36;99325.00;;;14.80
75822;BMP180;64454;51.984;9.838;2023-04-23T02:40:06;99322.00;;;14.90
75822;BMP180;64454;51.984;9.838;2023-04-23T02:42:33;99319.00;;;14.90
75822;BMP180;64454;51.984;9.838;2023-04-23T02:45:00;99324.00;;;14.90
75822;BMP180;64454;51.984;9.838;2023-04-23T02:47:26;99325.00;;;15.10
75822;BMP180;64454;51.984;9.838;2023-04-23T02:49:56;99323.00;;;15.00
75822;BMP180;64454;51.984;9.838;2023-04-23T02:52:22;99328.00;;;14.90
75822;BMP180;64454;51.984;9.838;2023-04-23T02:54:50;99323.00;;;14.60
75822;BMP180;64454;51.984;9.838;2023-04-23T02:57:16;99327.00;;;14.80
75822;BMP180;64454;51.984;9.838;2023-04-23T02:59:43;99315.00;;;14.70
75822;BMP180;64454;51.984;9.838;2023-04-23T03:02:10;99324.00;;;15.00
75822;BMP180;64454;51.984;9.838;2023-04-23T03:04:37;99326.00;;;14.70
75822;BMP180;64454;51.984;9.838;2023-04-23T03:07:05;99320.00;;;14.90
75822;BMP180;64454;51.984;9.838;2023-04-23T03:09:32;99322.00;;;14.90
75822;BMP180;64454;51.984;9.838;2023-04-23T03:11:59;99326.00;;;15.00
75822;BMP180;64454;51.984;9.838;2023-04-23T03:14:27;99327.00;;;15.00
75822;BMP180;64454;51.984;9.838;2023-04-23T03:16:53;99331.00;;;14.90
75822;BMP180;64454;51.984;9.838;2023-04-23T03:19:20;99330.00;;;14.70
75822;BMP180;64454;51.984;9.838;2023-04-23T03:21:47;99329.00;;;14.80
75822;BMP180;64454;51.984;9.838;2023-04-23T03:24:18;99331.00;;;14.60
75822;BMP180;64454;51.984;9.838;2023-04-23T03:26:46;99333.00;;;14.80
75822;BMP180;64454;51.984;9.838;2023-04-23T03:29:14;99334.00;;;14.80
75822;BMP180;64454;51.984;9.838;2023-04-23T03:31:42;99330.00;;;14.80
75822;BMP180;64454;51.984;9.838;2023-04-23T03:34:09;99330.00;;;15.00
75822;BMP180;64454;51.984;9.838;2023-04-23T03:36:36;99331.00;;;14.70
75822;BMP180;64454;51.984;9.838;2023-04-23T03:39:03;99331.00;;;14.60
75822;BMP180;64454;51.984;9.838;2023-04-23T03:41:31;99329.00;;;14.60
75822;BMP180;64454;51.984;9.838;2023-04-23T03:43:58;99334.00;;;14.60
75822;BMP180;64454;51.984;9.838;2023-04-23T03:46:25;99333.00;;;14.80
75822;BMP180;64454;51.984;9.838;2023-04-23T03:48:52;99338.00;;;14.80
75822;BMP180;64454;51.984;9.838;2023-04-23T03:51:18;99344.00;;;15.00
75822;BMP180;64454;51.984;9.838;2023-04-23T03:53:45;99350.00;;;14.90
75822;BMP180;64454;51.984;9.838;2023-04-23T03:56:12;99347.00;;;14.60
75822;BMP180;64454;51.984;9.838;2023-04-23T03:58:40;99353.00;;;14.60
75822;BMP180;64454;51.984;9.838;2023-04-23T04:01:07;99353.00;;;14.80
75822;BMP180;64454;51.984;9.838;2023-04-23T04:03:34;99347.00;;;14.40
75822;BMP180;64454;51.984;9.838;2023-04-23T04:06:01;99358.00;;;14.60
75822;BMP180;64454;51.984;9.838;2023-04-23T04:08:28;99362.00;;;14.50
75822;BMP180;64454;51.984;9.838;2023-04-23T04:10:55;99359.00;;;14.20
75822;BMP180;64454;51.984;9.838;2023-04-23T04:13:22;99363.00;;;14.10
75822;BMP180;64454;51.984;9.838;2023-04-23T04:15:50;99368.00;;;14.20
75822;BMP180;64454;51.984;9.838;2023-04-23T04:18:16;99373.00;;;14.30
75822;BMP180;64454;51.984;9.838;2023-04-23T04:20:43;99372.00;;;14.00
75822;BMP180;64454;51.984;9.838;2023-04-23T04:23:10;99378.00;;;14.10
75822;BMP180;64454;51.984;9.838;2023-04-23T04:25:37;99373.00;;;14.10
75822;BMP180;64454;51.984;9.838;2023-04-23T04:28:04;99370.00;;;14.10
75822;BMP180;64454;51.984;9.838;2023-04-23T04:30:34;99373.00;;;13.70
75822;BMP180;64454;51.984;9.838;2023-04-23T04:33:03;99378.00;;;13.90
75822;BMP180;64454;51.984;9.838;2023-04-23T04:35:29;99380.00;;;13.80
75822;BMP180;64454;51.984;9.838;2023-04-23T04:37:56;99387.00;;;13.80
75822;BMP180;64454;51.984;9.838;2023-04-23T04:40:23;99386.00;;;13.90
75822;BMP180;64454;51.984;9.838;2023-04-23T04:42:51;99397.00;;;13.90
75822;BMP180;64454;51.984;9.838;2023-04-23T04:45:20;99391.00;;;14.00
75822;BMP180;64454;51.984;9.838;2023-04-23T04:47:46;99395.00;;;14.00
75822;BMP180;64454;51.984;9.838;2023-04-23T04:50:14;99395.00;;;14.10
75822;BMP180;64454;51.984;9.838;2023-04-23T04:52:41;99402.00;;;14.00
75822;BMP180;64454;51.984;9.838;2023-04-23T04:55:09;99398.00;;;13.70
75822;BMP180;64454;51.984;9.838;2023-04-23T04:57:35;99408.00;;;14.00
75822;BMP180;64454;51.984;9.838;2023-04-23T05:00:19;99410.00;;;14.00
75822;BMP180;64454;51.984;9.838;2023-04-23T05:02:47;99414.00;;;14.00
75822;BMP180;64454;51.984;9.838;2023-04-23T05:05:16;99411.00;;;13.70
75822;BMP180;64454;51.984;9.838;2023-04-23T05:07:43;99408.00;;;13.80
75822;BMP180;64454;51.984;9.838;2023-04-23T05:10:10;99403.00;;;13.80
75822;BMP180;64454;51.984;9.838;2023-04-23T05:12:37;99405.00;;;13.70
75822;BMP180;64454;51.984;9.838;2023-04-23T05:15:07;99408.00;;;13.80
75822;BMP180;64454;51.984;9.838;2023-04-23T05:17:35;99416.00;;;13.60
75822;BMP180;64454;51.984;9.838;2023-04-23T05:20:02;99419.00;;;13.50
75822;BMP180;64454;51.984;9.838;2023-04-23T05:22:31;99434.00;;;13.50
75822;BMP180;64454;51.984;9.838;2023-04-23T05:24:57;99432.00;;;13.60
75822;BMP180;64454;51.984;9.838;2023-04-23T05:27:24;99437.00;;;13.50
75822;BMP180;64454;51.984;9.838;2023-04-23T05:29:52;99431.00;;;13.40
75822;BMP180;64454;51.984;9.838;2023-04-23T05:32:18;99430.00;;;13.60
75822;BMP180;64454;51.984;9.838;2023-04-23T05:34:45;99426.00;;;13.70
75822;BMP180;64454;51.984;9.838;2023-04-23T05:37:12;99423.00;;;13.50
75822;BMP180;64454;51.984;9.838;2023-04-23T05:39:40;99422.00;;;13.10
75822;BMP180;64454;51.984;9.838;2023-04-23T05:42:07;99433.00;;;13.40
75822;BMP180;64454;51.984;9.838;2023-04-23T05:44:33;99440.00;;;13.60
75822;BMP180;64454;51.984;9.838;2023-04-23T05:47:00;99447.00;;;13.30
75822;BMP180;64454;51.984;9.838;2023-04-23T05:49:27;99442.00;;;13.20
75822;BMP180;64454;51.984;9.838;2023-04-23T05:51:54;99444.00;;;13.40
75822;BMP180;64454;51.984;9.838;2023-04-23T05:54:23;99458.00;;;13.30
75822;BMP180;64454;51.984;9.838;2023-04-23T05:56:51;99446.00;;;13.50
75822;BMP180;64454;51.984;9.838;2023-04-23T05:59:19;99450.00;;;13.20
75822;BMP180;64454;51.984;9.838;2023-04-23T06:01:47;99447.00;;;13.20
75822;BMP180;64454;51.984;9.838;2023-04-23T06:04:16;99449.00;;;13.10
75822;BMP180;64454;51.984;9.838;2023-04-23T06:06:44;99447.00;;;13.20
75822;BMP180;64454;51.984;9.838;2023-04-23T06:09:11;99457.00;;;13.30
75822;BMP180;64454;51.984;9.838;2023-04-23T06:11:38;99455.00;;;13.60
75822;BMP180;64454;51.984;9.838;2023-04-23T06:14:06;99444.00;;;13.10
75822;BMP180;64454;51.984;9.838;2023-04-23T06:16:33;99433.00;;;13.00
75822;BMP180;64454;51.984;9.838;2023-04-23T06:18:59;99441.00;;;13.00
75822;BMP180;64454;51.984;9.838;2023-04-23T06:21:26;99446.00;;;13.20
75822;BMP180;64454;51.984;9.838;2023-04-23T06:23:53;99447.00;;;13.30
75822;BMP180;64454;51.984;9.838;2023-04-23T06:26:20;99445.00;;;13.20
75822;BMP180;64454;51.984;9.838;2023-04-23T06:28:47;99443.00;;;13.30
75822;BMP180;64454;51.984;9.838;2023-04-23T06:31:15;99441.00;;;13.20
75822;BMP180;64454;51.984;9.838;2023-04-23T06:33:42;99434.00;;;13.40
75822;BMP180;64454;51.984;9.838;2023-04-23T06:36:09;99432.00;;;13.10
75822;BMP180;64454;51.984;9.838;2023-04-23T06:38:36;99431.00;;;13.30
75822;BMP180;64454;51.984;9.838;2023-04-23T06:41:03;99435.00;;;12.90
75822;BMP180;64454;51.984;9.838;2023-04-23T06:43:30;99436.00;;;12.90
75822;BMP180;64454;51.984;9.838;2023-04-23T06:45:57;99436.00;;;13.40
75822;BMP180;64454;51.984;9.838;2023-04-23T06:48:25;99432.00;;;13.30
75822;BMP180;64454;51.984;9.838;2023-04-23T06:50:52;99432.00;;;12.90
75822;BMP180;64454;51.984;9.838;2023-04-23T06:53:20;99439.00;;;13.20
75822;BMP180;64454;51.984;9.838;2023-04-23T06:55:47;99433.00;;;12.90
75822;BMP180;64454;51.984;9.838;2023-04-23T06:58:14;99434.00;;;13.50
75822;BMP180;64454;51.984;9.838;2023-04-23T07:00:41;99434.00;;;13.30
75822;BMP180;64454;51.984;9.838;2023-04-23T07:03:08;99429.00;;;13.30
75822;BMP180;64454;51.984;9.838;2023-04-23T07:05:36;99420.00;;;13.20
75822;BMP180;64454;51.984;9.838;2023-04-23T07:08:03;99423.00;;;14.50
75822;BMP180;64454;51.984;9.838;2023-04-23T07:10:30;99424.00;;;14.40
75822;BMP180;64454;51.984;9.838;2023-04-23T07:12:57;99418.00;;;15.00
75822;BMP180;64454;51.984;9.838;2023-04-23T07:15:23;99418.00;;;15.30
75822;BMP180;64454;51.984;9.838;2023-04-23T07:17:50;99418.00;;;14.50
75822;BMP180;64454;51.984;9.838;2023-04-23T07:20:17;99409.00;;;14.30
75822;BMP180;64454;51.984;9.838;2023-04-23T07:22:46;99427.00;;;14.30
75822;BMP180;64454;51.984;9.838;2023-04-23T07:25:13;99428.00;;;13.20
75822;BMP180;64454;51.984;9.838;2023-04-23T07:27:39;99420.00;;;13.60
75822;BMP180;64454;51.984;9.838;2023-04-23T07:30:08;99409.00;;;14.20
75822;BMP180;64454;51.984;9.838;2023-04-23T07:32:34;99421.00;;;14.30
75822;BMP180;64454;51.984;9.838;2023-04-23T07:35:01;99413.00;;;14.10
75822;BMP180;64454;51.984;9.838;2023-04-23T07:37:29;99411.00;;;14.80
75822;BMP180;64454;51.984;9.838;2023-04-23T07:39:57;99410.00;;;15.90
75822;BMP180;64454;51.984;9.838;2023-04-23T07:42:25;99405.00;;;15.40
75822;BMP180;64454;51.984;9.838;2023-04-23T07:44:52;99405.00;;;16.10
75822;BMP180;64454;51.984;9.838;2023-04-23T07:47:19;99398.00;;;16.40
75822;BMP180;64454;51.984;9.838;2023-04-23T07:49:46;99395.00;;;17.50
75822;BMP180;64454;51.984;9.838;2023-04-23T07:52:12;99397.00;;;17.50
75822;BMP180;64454;51.984;9.838;2023-04-23T07:54:40;99388.00;;;18.50
75822;BMP180;64454;51.984;9.838;2023-04-23T07:57:08;99387.00;;;17.70
75822;BMP180;64454;51.984;9.838;2023-04-23T07:59:36;99386.00;;;17.70
75822;BMP180;64454;51.984;9.838;2023-04-23T08:02:04;99378.00;;;17.80
75822;BMP180;64454;51.984;9.838;2023-04-23T08:04:31;99380.00;;;17.30
75822;BMP180;64454;51.984;9.838;2023-04-23T08:06:58;99371.00;;;17.80
75822;BMP180;64454;51.984;9.838;2023-04-23T08:09:25;99379.00;;;21.10
75822;BMP180;64454;51.984;9.838;2023-04-23T08:11:51;99360.00;;;19.70
75822;BMP180;64454;51.984;9.838;2023-04-23T08:14:20;99363.00;;;18.50
75822;BMP180;64454;51.984;9.838;2023-04-23T08:16:47;99372.00;;;17.80
75822;BMP180;64454;51.984;9.838;2023-04-23T08:19:15;99357.00;;;17.20
75822;BMP180;64454;51.984;9.838;2023-04-23T08:21:43;99358.00;;;18.50
75822;BMP180;64454;51.984;9.838;2023-04-23T08:24:10;99350.00;;;19.00
75822;BMP180;64454;51.984;9.838;2023-04-23T08:26:36;99347.00;;;20.90
75822;BMP180;64454;51.984;9.838;2023-04-23T08:29:04;99346.00;;;20.50
75822;BMP180;64454;51.984;9.838;2023-04-23T08:31:32;99341.00;;;21.00
75822;BMP180;64454;51.984;9.838;2023-04-23T08:33:59;99351.00;;;20.10
75822;BMP180;64454;51.984;9.838;2023-04-23T08:36:25;99355.00;;;20.80
75822;BMP180;64454;51.984;9.838;2023-04-23T08:38:53;99341.00;;;22.70
75822;BMP180;64454;51.984;9.838;2023-04-23T08:41:22;99348.00;;;23.60
75822;BMP180;64454;51.984;9.838;2023-04-23T08:44:03;99347.00;;;22.50
75822;BMP180;64454;51.984;9.838;2023-04-23T08:46:36;99344.00;;;24.10
75822;BMP180;64454;51.984;9.838;2023-04-23T08:49:03;99337.00;;;23.80
75822;BMP180;64454;51.984;9.838;2023-04-23T08:51:37;99338.00;;;24.10
75822;BMP180;64454;51.984;9.838;2023-04-23T08:54:12;99343.00;;;24.00
75822;BMP180;64454;51.984;9.838;2023-04-23T08:56:41;99334.00;;;20.90
75822;BMP180;64454;51.984;9.838;2023-04-23T08:59:10;99335.00;;;22.90
75822;BMP180;64454;51.984;9.838;2023-04-23T09:01:40;99332.00;;;23.60
75822;BMP180;64454;51.984;9.838;2023-04-23T09:04:07;99334.00;;;25.70
75822;BMP180;64454;51.984;9.838;2023-04-23T09:06:35;99326.00;;;23.40
75822;BMP180;64454;51.984;9.838;2023-04-23T09:09:02;99319.00;;;23.50
75822;BMP180;64454;51.984;9.838;2023-04-23T09:11:32;99320.00;;;25.00
75822;BMP180;64454;51.984;9.838;2023-04-23T09:14:02;99330.00;;;26.20
75822;BMP180;64454;51.984;9.838;2023-04-23T09:16:29;99324.00;;;22.60
75822;BMP180;64454;51.984;9.838;2023-04-23T09:18:58;99318.00;;;23.50
75822;BMP180;64454;51.984;9.838;2023-04-23T09:21:25;99322.00;;;22.60
75822;BMP180;64454;51.984;9.838;2023-04-23T09:23:52;99320.00;;;23.40
75822;BMP180;64454;51.984;9.838;2023-04-23T09:26:20;99318.00;;;21.90
75822;BMP180;64454;51.984;9.838;2023-04-23T09:28:48;99315.00;;;22.70
75822;BMP180;64454;51.984;9.838;2023-04-23T09:31:19;99313.00;;;23.50
75822;BMP180;64454;51.984;9.838;2023-04-23T09:33:50;99308.00;;;24.10
75822;BMP180;64454;51.984;9.838;2023-04-23T09:36:21;99312.00;;;23.50
75822;BMP180;64454;51.984;9.838;2023-04-23T09:38:49;99298.00;;;24.20
75822;BMP180;64454;51.984;9.838;2023-04-23T09:41:23;99305.00;;;22.60
75822;BMP180;64454;51.984;9.838;2023-04-23T09:43:52;99305.00;;;24.40
75822;BMP180;64454;51.984;9.838;2023-04-23T09:46:32;99304.00;;;24.00
75822;BMP180;64454;51.984;9.838;2023-04-23T09:49:01;99290.00;;;24.60
75822;BMP180;64454;51.984;9.838;2023-04-23T09:51:30;99283.00;;;24.10
75822;BMP180;64454;51.984;9.838;2023-04-23T09:54:00;99284.00;;;25.90
75822;BMP180;64454;51.984;9.838;2023-04-23T09:56:27;99278.00;;;28.00
75822;BMP180;64454;51.984;9.838;2023-04-23T09:58:55;99317.00;;;25.00
75822;BMP180;64454;51.984;9.838;2023-04-23T10:01:27;99326.00;;;20.50
75822;BMP180;64454;51.984;9.838;2023-04-23T10:03:55;99320.00;;;20.20
75822;BMP180;64454;51.984;9.838;2023-04-23T10:06:28;99312.00;;;19.90
75822;BMP180;64454;51.984;9.838;2023-04-23T10:08:57;99270.00;;;18.90
75822;BMP180;64454;51.984;9.838;2023-04-23T10:11:24;99268.00;;;21.30
75822;BMP180;64454;51.984;9.838;2023-04-23T10:13:52;99289.00;;;24.60
75822;BMP180;64454;51.984;9.838;2023-04-23T10:16:21;99263.00;;;24.40
75822;BMP180;64454;51.984;9.838;2023-04-23T10:18:51;99289.00;;;24.70
75822;BMP180;64454;51.984;9.838;2023-04-23T10:21:24;99254.00;;;21.80
75822;BMP180;64454;51.984;9.838;2023-04-23T10:23:54;99297.00;;;22.00
75822;BMP180;64454;51.984;9.838;2023-04-23T10:26:24;99265.00;;;22.60
75822;BMP180;64454;51.984;9.838;2023-04-23T10:28:53;99271.00;;;22.60
75822;BMP180;64454;51.984;9.838;2023-04-23T10:31:21;99273.00;;;24.70
75822;BMP180;64454;51.984;9.838;2023-04-23T10:33:49;99308.00;;;25.30
75822;BMP180;64454;51.984;9.838;2023-04-23T10:36:16;99308.00;;;24.20
75822;BMP180;64454;51.984;9.838;2023-04-23T10:38:44;99317.00;;;22.70
75822;BMP180;64454;51.984;9.838;2023-04-23T10:41:19;99319.00;;;19.90
75822;BMP180;64454;51.984;9.838;2023-04-23T10:43:51;99274.00;;;23.20
75822;BMP180;64454;51.984;9.838;2023-04-23T10:46:27;99311.00;;;23.00
75822;BMP180;64454;51.984;9.838;2023-04-23T10:49:06;99269.00;;;21.30
75822;BMP180;64454;51.984;9.838;2023-04-23T10:51:34;99281.00;;;22.60
75822;BMP180;64454;51.984;9.838;2023-04-23T10:54:02;99274.00;;;25.70
75822;BMP180;64454;51.984;9.838;2023-04-23T10:56:30;99266.00;;;27.40
75822;BMP180;64454;51.984;9.838;2023-04-23T10:58:59;99270.00;;;24.10
75822;BMP180;64454;51.984;9.838;2023-04-23T11:01:27;99273.00;;;24.60
75822;BMP180;64454;51.984;9.838;2023-04-23T11:03:55;99270.00;;;24.10
75822;BMP180;64454;51.984;9.838;2023-04-23T11:06:50;99267.00;;;24.50
75822;BMP180;64454;51.984;9.838;2023-04-23T11:09:39;99269.00;;;24.30
75822;BMP180;64454;51.984;9.838;2023-04-23T11:12:10;99279.00;;;24.50
75822;BMP180;64454;51.984;9.838;2023-04-23T11:14:45;99292.00;;;22.30
75822;BMP180;64454;51.984;9.838;2023-04-23T11:17:13;99282.00;;;22.90
75822;BMP180;64454;51.984;9.838;2023-04-23T11:20:04;99289.00;;;21.50
75822;BMP180;64454;51.984;9.838;2023-04-23T11:22:34;99289.00;;;20.90
75822;BMP180;64454;51.984;9.838;2023-04-23T11:25:01;99281.00;;;19.80
75822;BMP180;64454;51.984;9.838;2023-04-23T11:27:29;99292.00;;;21.10
75822;BMP180;64454;51.984;9.838;2023-04-23T11:29:57;99289.00;;;19.20
75822;BMP180;64454;51.984;9.838;2023-04-23T11:32:27;99297.00;;;18.90
75822;BMP180;64454;51.984;9.838;2023-04-23T11:34:54;99292.00;;;18.90
75822;BMP180;64454;51.984;9.838;2023-04-23T11:37:23;99294.00;;;19.50
75822;BMP180;64454;51.984;9.838;2023-04-23T11:39:50;99306.00;;;18.50
75822;BMP180;64454;51.984;9.838;2023-04-23T11:42:17;99311.00;;;18.50
75822;BMP180;64454;51.984;9.838;2023-04-23T11:44:47;99326.00;;;18.80
75822;BMP180;64454;51.984;9.838;2023-04-23T11:47:15;99379.00;;;18.30
75822;BMP180;64454;51.984;9.838;2023-04-23T11:49:43;99388.00;;;17.20
75822;BMP180;64454;51.984;9.838;2023-04-23T11:52:11;99393.00;;;16.20
75822;BMP180;64454;51.984;9.838;2023-04-23T11:54:40;99407.00;;;15.30
75822;BMP180;64454;51.984;9.838;2023-04-23T11:57:07;99378.00;;;15.20
75822;BMP180;64454;51.984;9.838;2023-04-23T11:59:34;99365.00;;;15.80
75822;BMP180;64454;51.984;9.838;2023-04-23T12:02:01;99355.00;;;15.80
75822;BMP180;64454;51.984;9.838;2023-04-23T12:04:31;99352.00;;;15.20
75822;BMP180;64454;51.984;9.838;2023-04-23T12:06:58;99346.00;;;15.60
75822;BMP180;64454;51.984;9.838;2023-04-23T12:09:27;99333.00;;;16.60
75822;BMP180;64454;51.984;9.838;2023-04-23T12:11:56;99331.00;;;17.30
75822;BMP180;64454;51.984;9.838;2023-04-23T12:14:26;99322.00;;;17.40
75822;BMP180;64454;51.984;9.838;2023-04-23T12:16:55;99318.00;;;17.70
75822;BMP180;64454;51.984;9.838;2023-04-23T12:19:26;99308.00;;;18.00
75822;BMP180;64454;51.984;9.838;2023-04-23T12:21:57;99299.00;;;19.20
75822;BMP180;64454;51.984;9.838;2023-04-23T12:24:26;99293.00;;;19.90
75822;BMP180;64454;51.984;9.838;2023-04-23T12:26:55;99270.00;;;20.60
75822;BMP180;64454;51.984;9.838;2023-04-23T12:29:24;99275.00;;;22.10
75822;BMP180;64454;51.984;9.838;2023-04-23T12:31:52;99279.00;;;22.50
75822;BMP180;64454;51.984;9.838;2023-04-23T12:34:23;99266.00;;;22.20
75822;BMP180;64454;51.984;9.838;2023-04-23T12:36:53;99255.00;;;23.30
75822;BMP180;64454;51.984;9.838;2023-04-23T12:39:27;99268.00;;;21.30
75822;BMP180;64454;51.984;9.838;2023-04-23T12:41:58;99259.00;;;21.20
75822;BMP180;64454;51.984;9.838;2023-04-23T12:44:27;99253.00;;;20.70
75822;BMP180;64454;51.984;9.838;2023-04-23T12:46:56;99243.00;;;20.70
75822;BMP180;64454;51.984;9.838;2023-04-23T12:49:24;99232.00;;;21.20
75822;BMP180;64454;51.984;9.838;2023-04-23T12:51:52;99248.00;;;21.20
75822;BMP180;64454;51.984;9.838;2023-04-23T12:54:24;99237.00;;;20.30
75822;BMP180;64454;51.984;9.838;2023-04-23T12:56:52;99234.00;;;22.50
75822;BMP180;64454;51.984;9.838;2023-04-23T12:59:20;99232.00;;;20.80
75822;BMP180;64454;51.984;9.838;2023-04-23T13:01:47;99246.00;;;20.70
75822;BMP180;64454;51.984;9.838;2023-04-23T13:04:16;99241.00;;;20.20
75822;BMP180;64454;51.984;9.838;2023-04-23T13:06:44;99236.00;;;19.30
75822;BMP180;64454;51.984;9.838;2023-04-23T13:09:11;99245.00;;;18.60
75822;BMP180;64454;51.984;9.838;2023-04-23T13:11:40;99245.00;;;18.40
75822;BMP180;64454;51.984;9.838;2023-04-23T13:14:08;99235.00;;;18.30
75822;BMP180;64454;51.984;9.838;2023-04-23T13:16:35;99234.00;;;18.00
75822;BMP180;64454;51.984;9.838;2023-04-23T13:19:02;99244.00;;;17.40
75822;BMP180;64454;51.984;9.838;2023-04-23T13:21:29;99251.00;;;17.90
75822;BMP180;64454;51.984;9.838;2023-04-23T13:23:56;99257.00;;;17.70
75822;BMP180;64454;51.984;9.838;2023-04-23T13:26:22;99264.00;;;17.40
75822;BMP180;64454;51.984;9.838;2023-04-23T13:28:51;99265.00;;;16.70
75822;BMP180;64454;51.984;9.838;2023-04-23T13:31:17;99249.00;;;17.60
75822;BMP180;64454;51.984;9.838;2023-04-23T13:33:44;99237.00;;;17.70
75822;BMP180;64454;51.984;9.838;2023-04-23T13:36:11;99228.00;;;17.80
75822;BMP180;64454;51.984;9.838;2023-04-23T13:38:38;99216.00;;;17.90
75822;BMP180;64454;51.984;9.838;2023-04-23T13:41:04;99220.00;;;17.20
75822;BMP180;64454;51.984;9.838;2023-04-23T13:43:31;99210.00;;;17.90
75822;BMP180;64454;51.984;9.838;2023-04-23T13:45:59;99210.00;;;18.80
75822;BMP180;64454;51.984;9.838;2023-04-23T13:48:27;99196.00;;;19.30
75822;BMP180;64454;51.984;9.838;2023-04-23T13:50:56;99199.00;;;19.80
75822;BMP180;64454;51.984;9.838;2023-04-23T13:53:23;99193.00;;;20.10
75822;BMP180;64454;51.984;9.838;2023-04-23T13:55:50;99189.00;;;19.60
75822;BMP180;64454;51.984;9.838;2023-04-23T13:58:17;99182.00;;;19.40
75822;BMP180;64454;51.984;9.838;2023-04-23T14:00:44;99175.00;;;19.50
75822;BMP180;64454;51.984;9.838;2023-04-23T14:03:12;99173.00;;;19.10
75822;BMP180;64454;51.984;9.838;2023-04-23T14:05:39;99174.00;;;18.90
75822;BMP180;64454;51.984;9.838;2023-04-23T14:08:06;99163.00;;;19.00
75822;BMP180;64454;51.984;9.838;2023-04-23T14:10:33;99159.00;;;18.60
75822;BMP180;64454;51.984;9.838;2023-04-23T14:13:01;99162.00;;;18.30
75822;BMP180;64454;51.984;9.838;2023-04-23T14:15:29;99150.00;;;18.90